createdAt,value
2018-08-31T00:00:43.649Z,10.60
2018-08-31T00:03:13.927Z,7.33
2018-08-31T00:05:54.912Z,10.90
2018-08-31T00:10:41.392Z,9.40
2018-08-31T00:13:10.991Z,10.37
2018-08-31T00:15:39.670Z,12.80
2018-08-31T00:18:08.292Z,10.07
2018-08-31T00:20:37.450Z,10.23
2018-08-31T00:23:06.012Z,11.07
2018-08-31T00:26:16.946Z,14.30
2018-08-31T00:29:12.419Z,10.23
2018-08-31T00:33:57.816Z,9.47
2018-08-31T00:38:41.084Z,10.50
2018-08-31T00:41:20.827Z,10.40
2018-08-31T00:44:04.385Z,9.87
2018-08-31T00:46:32.953Z,11.07
2018-08-31T00:49:01.543Z,11.60
2018-08-31T00:51:30.102Z,9.30
2018-08-31T00:53:58.686Z,12.03
2018-08-31T00:56:27.966Z,12.60
2018-08-31T00:59:06.611Z,12.77
2018-08-31T01:01:37.009Z,11.53
2018-08-31T01:04:05.753Z,17.23
2018-08-31T01:06:34.338Z,17.10
2018-08-31T01:09:03.769Z,12.97
2018-08-31T01:11:32.417Z,10.57
2018-08-31T01:14:02.540Z,11.87
2018-08-31T01:16:31.974Z,12.23
2018-08-31T01:19:00.688Z,12.90
2018-08-31T01:21:30.752Z,13.77
2018-08-31T01:24:00.861Z,14.40
2018-08-31T01:26:30.447Z,12.83
2018-08-31T01:29:00.240Z,11.60
2018-08-31T01:31:29.339Z,12.50
2018-08-31T01:33:57.952Z,13.47
2018-08-31T01:36:27.058Z,14.00
2018-08-31T01:38:55.706Z,13.47
2018-08-31T01:41:25.344Z,16.30
2018-08-31T01:43:54.723Z,12.53
2018-08-31T01:46:23.350Z,13.83
2018-08-31T01:48:52.956Z,12.87
2018-08-31T01:51:22.542Z,14.37
2018-08-31T01:53:51.129Z,12.50
2018-08-31T01:56:20.408Z,13.57
2018-08-31T01:58:49.085Z,13.60
2018-08-31T02:01:17.706Z,11.40
2018-08-31T02:03:46.327Z,15.50
2018-08-31T02:06:15.209Z,14.03
2018-08-31T02:08:49.254Z,15.13
2018-08-31T02:11:18.069Z,12.73
2018-08-31T02:13:46.749Z,13.00
2018-08-31T02:16:15.389Z,12.60
2018-08-31T02:18:44.194Z,12.80
2018-08-31T02:21:13.748Z,14.60
2018-08-31T02:23:43.175Z,13.10
2018-08-31T02:26:13.802Z,13.20
2018-08-31T02:28:43.334Z,11.43
2018-08-31T02:31:11.987Z,12.40
2018-08-31T02:33:41.954Z,15.53
2018-08-31T02:36:11.512Z,13.10
2018-08-31T02:38:46.362Z,13.30
2018-08-31T02:41:16.518Z,13.07
2018-08-31T02:43:46.342Z,13.40
2018-08-31T02:46:15.136Z,13.30
2018-08-31T02:48:43.744Z,14.27
2018-08-31T02:51:13.371Z,13.00
2018-08-31T02:53:42.288Z,13.13
2018-08-31T02:58:45.967Z,13.40
2018-08-31T03:01:15.424Z,12.40
2018-08-31T03:03:44.856Z,13.00
2018-08-31T03:06:14.334Z,13.13
2018-08-31T03:08:43.322Z,14.83
2018-08-31T03:11:11.912Z,14.83
2018-08-31T03:14:10.994Z,13.50
2018-08-31T03:16:40.268Z,11.40
2018-08-31T03:19:09.233Z,13.77
2018-08-31T03:21:38.213Z,13.50
2018-08-31T03:24:06.802Z,15.33
2018-08-31T03:26:35.598Z,15.73
2018-08-31T03:29:04.692Z,15.93
2018-08-31T03:31:33.644Z,13.87
2018-08-31T03:34:02.240Z,14.37
2018-08-31T03:36:30.807Z,11.17
2018-08-31T03:38:59.396Z,12.50
2018-08-31T03:41:27.952Z,11.47
2018-08-31T03:43:56.534Z,14.63
2018-08-31T03:46:25.670Z,12.90
2018-08-31T03:48:54.204Z,10.00
2018-08-31T03:51:22.894Z,13.20
2018-08-31T03:53:52.391Z,12.50
2018-08-31T03:56:20.962Z,12.87
2018-08-31T03:58:50.067Z,15.40
2018-08-31T04:01:18.595Z,16.70
2018-08-31T04:03:48.083Z,15.20
2018-08-31T04:06:17.908Z,13.40
2018-08-31T04:08:46.562Z,15.23
2018-08-31T04:11:15.751Z,11.80
2018-08-31T04:13:44.345Z,12.97
2018-08-31T04:16:13.862Z,14.40
2018-08-31T04:18:42.454Z,14.00
2018-08-31T04:21:11.138Z,12.33
2018-08-31T04:23:41.555Z,13.37
2018-08-31T04:26:10.143Z,13.03
2018-08-31T04:28:38.707Z,12.27
2018-08-31T04:31:07.890Z,14.13
2018-08-31T04:33:36.492Z,13.03
2018-08-31T04:36:05.415Z,11.63
2018-08-31T04:38:34.999Z,11.90
2018-08-31T04:41:04.180Z,13.00
2018-08-31T04:43:32.782Z,10.40
2018-08-31T04:46:01.372Z,11.53
2018-08-31T04:48:30.777Z,11.83
2018-08-31T04:50:59.380Z,12.13
2018-08-31T04:53:29.166Z,14.77
2018-08-31T04:55:58.007Z,12.10
2018-08-31T04:58:27.293Z,11.70
2018-08-31T05:00:55.947Z,11.70
2018-08-31T05:03:24.899Z,12.30
2018-08-31T05:05:53.485Z,11.47
2018-08-31T05:08:22.862Z,10.33
2018-08-31T05:10:52.116Z,12.40
2018-08-31T05:13:20.719Z,13.80
2018-08-31T05:15:49.307Z,12.37
2018-08-31T05:18:18.581Z,12.70
2018-08-31T05:20:47.494Z,14.23
2018-08-31T05:23:16.094Z,12.43
2018-08-31T05:25:44.678Z,12.10
2018-08-31T05:28:13.241Z,12.30
2018-08-31T05:30:42.410Z,10.80
2018-08-31T05:33:11.211Z,12.27
2018-08-31T05:35:40.388Z,12.23
2018-08-31T05:38:09.016Z,10.33
2018-08-31T05:40:37.726Z,10.83
2018-08-31T05:43:07.146Z,13.43
2018-08-31T05:45:35.893Z,10.47
2018-08-31T05:48:04.469Z,9.60
2018-08-31T05:50:33.068Z,12.83
2018-08-31T05:53:01.845Z,10.60
2018-08-31T05:55:31.007Z,11.60
2018-08-31T05:57:59.759Z,13.10
2018-08-31T06:00:28.485Z,11.40
2018-08-31T06:02:57.083Z,13.30
2018-08-31T06:05:27.027Z,10.43
2018-08-31T06:07:56.299Z,10.47
2018-08-31T06:10:24.865Z,11.10
2018-08-31T06:12:53.393Z,11.57
2018-08-31T06:15:22.031Z,12.37
2018-08-31T06:17:50.639Z,10.60
2018-08-31T06:20:19.178Z,12.67
2018-08-31T06:22:47.803Z,14.03
2018-08-31T06:25:16.317Z,13.50
2018-08-31T06:27:44.889Z,12.33
2018-08-31T06:30:13.686Z,10.10
2018-08-31T06:32:42.273Z,12.80
2018-08-31T06:35:11.670Z,11.90
2018-08-31T06:37:40.236Z,14.73
2018-08-31T06:40:08.863Z,10.70
2018-08-31T06:42:37.483Z,10.20
2018-08-31T06:45:06.166Z,11.77
2018-08-31T06:47:34.813Z,11.57
2018-08-31T06:50:03.398Z,10.17
2018-08-31T06:52:31.942Z,11.27
2018-08-31T06:55:00.446Z,10.87
2018-08-31T06:57:29.017Z,9.57
2018-08-31T06:59:57.588Z,9.83
2018-08-31T07:02:26.669Z,9.93
2018-08-31T07:04:55.207Z,9.50
2018-08-31T07:07:23.774Z,13.17
2018-08-31T07:09:52.352Z,11.43
2018-08-31T07:12:21.035Z,11.20
2018-08-31T07:14:49.519Z,14.60
2018-08-31T07:17:18.117Z,12.07
2018-08-31T07:19:46.699Z,13.13
2018-08-31T07:22:15.221Z,14.57
2018-08-31T07:24:43.771Z,8.83
2018-08-31T07:27:12.292Z,11.87
2018-08-31T07:29:41.099Z,13.10
2018-08-31T07:32:09.718Z,10.60
2018-08-31T07:34:40.031Z,10.53
2018-08-31T07:37:08.623Z,11.67
2018-08-31T07:39:38.492Z,9.90
2018-08-31T07:42:07.063Z,10.80
2018-08-31T07:44:35.804Z,15.90
2018-08-31T07:47:04.682Z,10.37
2018-08-31T07:49:33.382Z,11.27
2018-08-31T07:52:01.979Z,9.73
2018-08-31T07:54:31.566Z,10.23
2018-08-31T07:57:00.066Z,10.87
2018-08-31T07:59:28.635Z,13.50
2018-08-31T08:01:57.744Z,12.77
2018-08-31T08:04:26.359Z,10.73
2018-08-31T08:06:54.928Z,11.03
2018-08-31T08:09:23.503Z,10.10
2018-08-31T08:11:52.074Z,9.73
2018-08-31T08:14:20.615Z,11.00
2018-08-31T08:16:49.266Z,11.40
2018-08-31T08:19:18.599Z,12.50
2018-08-31T08:21:47.253Z,11.43
2018-08-31T08:24:15.823Z,11.80
2018-08-31T08:26:44.327Z,9.00
2018-08-31T08:29:13.155Z,12.30
2018-08-31T08:31:41.718Z,11.73
2018-08-31T08:34:10.288Z,9.70
2018-08-31T08:36:39.025Z,11.77
2018-08-31T08:39:08.093Z,11.00
2018-08-31T08:41:36.685Z,9.77
2018-08-31T08:44:05.338Z,11.37
2018-08-31T08:46:33.941Z,10.63
2018-08-31T08:49:02.510Z,10.23
2018-08-31T08:51:33.212Z,10.60
2018-08-31T08:54:01.779Z,12.03
2018-08-31T08:56:30.404Z,10.60
2018-08-31T08:58:58.896Z,11.83
2018-08-31T09:01:27.526Z,11.70
2018-08-31T09:03:56.074Z,15.13
2018-08-31T09:06:24.867Z,12.50
2018-08-31T09:08:53.638Z,12.17
2018-08-31T09:11:22.585Z,12.07
2018-08-31T09:13:51.208Z,12.80
2018-08-31T09:16:20.100Z,12.27
2018-08-31T09:18:48.739Z,12.07
2018-08-31T09:21:18.266Z,14.10
2018-08-31T09:23:46.795Z,12.20
2018-08-31T09:26:15.869Z,11.93
2018-08-31T09:28:44.420Z,11.20
2018-08-31T09:31:14.922Z,13.23
2018-08-31T09:33:43.500Z,17.67
2018-08-31T09:36:12.846Z,14.60
2018-08-31T09:38:42.674Z,16.40
2018-08-31T09:41:17.492Z,14.00
2018-08-31T09:43:48.497Z,15.70
2018-08-31T09:46:17.739Z,13.57
2018-08-31T09:48:47.694Z,13.50
2018-08-31T09:51:16.627Z,12.50
2018-08-31T09:53:46.367Z,15.13
2018-08-31T09:56:15.502Z,16.33
2018-08-31T09:58:44.720Z,13.20
2018-08-31T10:01:18.681Z,12.90
2018-08-31T10:03:47.313Z,14.73
2018-08-31T10:06:15.838Z,14.47
2018-08-31T10:08:45.405Z,12.77
2018-08-31T10:11:14.665Z,15.67
2018-08-31T10:13:49.541Z,13.90
2018-08-31T10:16:18.386Z,14.90
2018-08-31T10:18:47.044Z,13.20
2018-08-31T10:21:16.338Z,14.93
2018-08-31T10:23:44.886Z,13.60
2018-08-31T10:26:13.549Z,13.27
2018-08-31T10:28:42.091Z,14.37
2018-08-31T10:31:10.723Z,17.13
2018-08-31T10:33:39.294Z,14.80
2018-08-31T10:36:07.862Z,14.23
2018-08-31T10:38:36.886Z,15.03
2018-08-31T10:41:06.378Z,14.23
2018-08-31T10:43:43.109Z,12.50
2018-08-31T10:46:17.525Z,14.83
2018-08-31T10:48:52.853Z,13.70
2018-08-31T10:51:28.878Z,15.33
2018-08-31T10:54:06.431Z,17.13
2018-08-31T10:56:35.146Z,15.73
2018-08-31T10:59:03.750Z,15.20
2018-08-31T11:01:32.391Z,16.53
2018-08-31T11:04:00.970Z,15.00
2018-08-31T11:06:34.550Z,17.03
2018-08-31T11:09:04.560Z,16.47
2018-08-31T11:11:34.782Z,17.67
2018-08-31T11:14:03.796Z,14.40
2018-08-31T11:16:32.466Z,17.43
2018-08-31T11:19:01.898Z,15.40
2018-08-31T11:21:34.663Z,17.33
2018-08-31T11:24:04.819Z,16.10
2018-08-31T11:26:34.542Z,16.37
2018-08-31T11:29:03.115Z,17.30
2018-08-31T11:31:51.851Z,16.67
2018-08-31T11:34:21.291Z,16.90
2018-08-31T11:36:50.585Z,16.13
2018-08-31T11:39:20.890Z,13.70
2018-08-31T11:41:49.561Z,14.57
2018-08-31T11:44:20.286Z,13.87
2018-08-31T11:46:48.877Z,14.67
2018-08-31T11:49:17.413Z,15.50
2018-08-31T11:51:47.140Z,16.47
2018-08-31T11:54:15.924Z,15.70
2018-08-31T11:56:44.697Z,13.60
2018-08-31T11:59:13.629Z,13.73
2018-08-31T12:01:43.238Z,14.30
2018-08-31T12:04:17.946Z,12.97
2018-08-31T12:06:54.287Z,15.73
2018-08-31T12:09:37.644Z,15.50
2018-08-31T12:12:19.725Z,13.90
2018-08-31T12:15:00.635Z,15.83
2018-08-31T12:17:39.942Z,14.13
2018-08-31T12:20:09.946Z,15.60
2018-08-31T12:22:46.513Z,14.13
2018-08-31T12:25:15.316Z,14.73
2018-08-31T12:27:46.059Z,15.40
2018-08-31T12:30:16.029Z,13.73
2018-08-31T12:32:44.673Z,14.07
2018-08-31T12:35:13.393Z,13.30
2018-08-31T12:37:45.300Z,13.70
2018-08-31T12:40:22.307Z,16.30
2018-08-31T12:43:00.096Z,13.67
2018-08-31T12:45:34.240Z,14.37
2018-08-31T12:48:03.927Z,12.70
2018-08-31T12:50:34.777Z,11.23
2018-08-31T12:53:05.786Z,14.57
2018-08-31T12:55:34.436Z,13.77
2018-08-31T12:58:03.031Z,17.63
2018-08-31T13:00:31.614Z,13.50
2018-08-31T13:03:00.794Z,14.60
2018-08-31T13:05:29.379Z,17.13
2018-08-31T13:07:57.946Z,13.37
2018-08-31T13:10:27.443Z,15.53
2018-08-31T13:12:56.026Z,15.73
2018-08-31T13:15:24.542Z,13.63
2018-08-31T13:17:53.114Z,13.73
2018-08-31T13:20:28.387Z,15.73
2018-08-31T13:22:56.905Z,14.30
2018-08-31T13:25:25.774Z,16.90
2018-08-31T13:27:55.910Z,14.83
2018-08-31T13:30:24.397Z,15.37
2018-08-31T13:32:52.992Z,18.50
2018-08-31T13:35:21.602Z,16.90
2018-08-31T13:37:50.105Z,14.00
2018-08-31T13:40:18.710Z,17.00
2018-08-31T13:42:47.216Z,16.33
2018-08-31T13:45:15.806Z,15.50
2018-08-31T13:47:44.377Z,15.40
2018-08-31T13:50:13.246Z,15.53
2018-08-31T13:52:43.407Z,16.93
2018-08-31T13:55:12.163Z,14.53
2018-08-31T13:57:41.502Z,14.40
2018-08-31T14:00:15.363Z,17.03
2018-08-31T14:02:46.248Z,15.57
2018-08-31T14:05:14.828Z,15.30
2018-08-31T14:07:43.573Z,15.60
2018-08-31T14:10:12.106Z,17.90
2018-08-31T14:12:40.667Z,16.30
2018-08-31T14:15:09.301Z,16.60
2018-08-31T14:17:38.796Z,18.20
2018-08-31T14:20:17.399Z,14.60
2018-08-31T14:22:46.695Z,13.77
2018-08-31T14:25:15.241Z,12.30
2018-08-31T14:27:51.694Z,14.07
2018-08-31T14:30:20.272Z,11.20
2018-08-31T14:33:23.112Z,14.23
2018-08-31T14:35:52.099Z,12.77
2018-08-31T14:38:22.790Z,11.13
2018-08-31T14:40:51.423Z,10.20
2018-08-31T14:43:19.989Z,11.00
2018-08-31T14:45:54.224Z,13.33
2018-08-31T14:48:22.809Z,10.27
2018-08-31T14:50:51.383Z,11.77
2018-08-31T14:53:20.037Z,11.73
2018-08-31T14:55:49.189Z,14.10
2018-08-31T14:58:17.813Z,12.70
2018-08-31T15:00:46.384Z,12.00
2018-08-31T15:03:14.914Z,12.03
2018-08-31T15:05:51.565Z,13.83
2018-08-31T15:08:20.277Z,15.13
2018-08-31T15:10:49.741Z,12.60
2018-08-31T15:13:18.296Z,11.40
2018-08-31T15:18:14.850Z,11.97
2018-08-31T15:20:43.521Z,12.60
2018-08-31T15:23:12.118Z,14.23
2018-08-31T15:25:40.772Z,12.00
2018-08-31T15:28:09.325Z,13.47
2018-08-31T15:30:37.893Z,14.00
2018-08-31T15:33:06.491Z,12.43
2018-08-31T15:35:35.109Z,13.97
2018-08-31T15:38:03.759Z,14.23
2018-08-31T15:40:32.309Z,15.40
2018-08-31T15:43:01.108Z,11.30
2018-08-31T15:45:29.638Z,12.80
2018-08-31T15:47:58.206Z,12.83
2018-08-31T15:50:27.677Z,12.20
2018-08-31T15:52:56.173Z,12.90
2018-08-31T15:55:24.693Z,15.60
2018-08-31T15:57:53.244Z,14.30
2018-08-31T16:00:22.114Z,14.33
2018-08-31T16:02:50.642Z,14.97
2018-08-31T16:05:19.261Z,13.93
2018-08-31T16:07:47.780Z,13.17
2018-08-31T16:10:16.371Z,14.37
2018-08-31T16:12:45.219Z,13.83
2018-08-31T16:15:14.470Z,14.60
2018-08-31T16:17:43.065Z,16.07
2018-08-31T16:20:11.612Z,17.30
2018-08-31T16:22:41.190Z,16.77
2018-08-31T16:25:09.814Z,14.23
2018-08-31T16:27:38.394Z,14.60
2018-08-31T16:30:07.032Z,15.90
2018-08-31T16:32:35.881Z,15.17
2018-08-31T16:35:07.170Z,14.63
2018-08-31T16:37:36.554Z,16.27
2018-08-31T16:40:05.236Z,16.00
2018-08-31T16:42:33.769Z,17.93
2018-08-31T16:45:02.359Z,18.90
2018-08-31T16:47:30.904Z,17.30
2018-08-31T16:50:00.190Z,18.10
2018-08-31T16:52:28.732Z,17.77
2018-08-31T16:54:57.233Z,26.87
2018-08-31T16:57:25.802Z,20.47
2018-08-31T16:59:54.584Z,18.67
2018-08-31T17:02:23.169Z,21.50
2018-08-31T17:04:51.753Z,20.90
2018-08-31T17:07:20.387Z,20.47
2018-08-31T17:09:49.162Z,17.63
2018-08-31T17:12:17.934Z,17.40
2018-08-31T17:14:46.501Z,15.33
2018-08-31T17:17:15.047Z,16.17
2018-08-31T17:19:43.618Z,18.17
2018-08-31T17:22:12.190Z,14.67
2018-08-31T17:24:41.507Z,15.90
2018-08-31T17:27:15.297Z,18.77
2018-08-31T17:29:46.610Z,15.20
2018-08-31T17:32:20.999Z,16.37
2018-08-31T17:34:54.754Z,15.90
2018-08-31T17:37:28.657Z,14.20
2018-08-31T17:39:57.641Z,14.90
2018-08-31T17:42:29.422Z,15.33
2018-08-31T17:44:58.789Z,15.40
2018-08-31T17:47:57.992Z,13.73
2018-08-31T17:50:26.572Z,16.27
2018-08-31T17:52:56.121Z,17.40
2018-08-31T17:55:24.719Z,15.50
2018-08-31T17:57:53.457Z,16.67
2018-08-31T18:00:22.040Z,15.57
2018-08-31T18:02:50.540Z,15.50
2018-08-31T18:05:19.058Z,19.27
2018-08-31T18:07:47.626Z,17.00
2018-08-31T18:10:16.286Z,16.07
2018-08-31T18:12:45.861Z,18.37
2018-08-31T18:15:14.430Z,18.10
2018-08-31T18:17:42.978Z,15.90
2018-08-31T18:20:11.555Z,20.57
2018-08-31T18:22:41.534Z,23.60
2018-08-31T18:25:10.231Z,19.87
2018-08-31T18:27:38.890Z,18.33
2018-08-31T18:30:07.940Z,18.50
2018-08-31T18:32:40.896Z,21.40
2018-08-31T18:35:06.395Z,18.57
2018-08-31T18:37:36.133Z,17.57
2018-08-31T18:40:05.256Z,17.37
2018-08-31T18:42:33.763Z,20.20
2018-08-31T18:45:02.854Z,16.87
2018-08-31T18:47:32.496Z,17.50
2018-08-31T18:50:02.643Z,26.53
2018-08-31T18:52:31.821Z,18.13
2018-08-31T18:55:00.429Z,17.27
2018-08-31T18:57:29.027Z,20.73
2018-08-31T18:59:58.892Z,19.60
2018-08-31T19:02:28.240Z,19.80
2018-08-31T19:04:56.812Z,18.27
2018-08-31T19:07:25.354Z,16.53
2018-08-31T19:09:55.715Z,18.87
2018-08-31T19:12:25.700Z,14.97
2018-08-31T19:14:54.278Z,17.90
2018-08-31T19:17:23.074Z,18.60
2018-08-31T19:19:51.695Z,16.43
2018-08-31T19:22:20.920Z,20.57
2018-08-31T19:24:49.780Z,16.93
2018-08-31T19:27:19.718Z,18.97
2018-08-31T19:29:49.954Z,16.17
2018-08-31T19:32:18.857Z,18.60
2018-08-31T19:34:47.903Z,22.70
2018-08-31T19:37:16.745Z,22.47
2018-08-31T19:39:46.362Z,19.67
2018-08-31T19:42:15.363Z,20.73
2018-08-31T19:44:44.797Z,15.40
2018-08-31T19:47:14.715Z,17.00
2018-08-31T19:49:43.315Z,13.17
2018-08-31T19:52:12.363Z,14.60
2018-08-31T19:54:41.293Z,14.30
2018-08-31T19:57:09.971Z,12.40
2018-08-31T19:59:38.882Z,12.73
2018-08-31T20:02:07.507Z,12.87
2018-08-31T20:04:36.604Z,13.97
2018-08-31T20:07:06.317Z,12.10
2018-08-31T20:09:36.439Z,14.80
2018-08-31T20:12:04.949Z,13.57
2018-08-31T20:14:33.645Z,11.97
2018-08-31T20:17:03.010Z,12.77
2018-08-31T20:19:31.846Z,11.33
2018-08-31T20:22:00.365Z,10.20
2018-08-31T20:24:29.534Z,12.33
2018-08-31T20:26:58.361Z,9.97
2018-08-31T20:29:26.906Z,12.10
2018-08-31T20:31:55.467Z,11.70
2018-08-31T20:34:24.711Z,13.73
2018-08-31T20:36:53.267Z,12.27
2018-08-31T20:39:21.792Z,12.33
2018-08-31T20:42:53.943Z,11.97
2018-08-31T20:45:22.742Z,13.50
2018-08-31T20:47:51.783Z,12.63
2018-08-31T20:50:20.941Z,12.53
2018-08-31T20:52:49.465Z,11.50
2018-08-31T20:55:18.885Z,13.40
2018-08-31T20:57:48.638Z,12.93
2018-08-31T21:00:17.747Z,12.40
2018-08-31T21:02:46.319Z,12.93
2018-08-31T21:05:16.301Z,12.13
2018-08-31T21:07:44.894Z,12.40
2018-08-31T21:10:13.519Z,11.60
2018-08-31T21:12:43.245Z,14.63
2018-08-31T21:15:11.871Z,12.77
2018-08-31T21:17:40.430Z,11.50
2018-08-31T21:20:09.075Z,11.03
2018-08-31T21:22:38.290Z,9.93
2018-08-31T21:25:07.574Z,15.50
2018-08-31T21:27:36.803Z,12.60
2018-08-31T21:30:06.130Z,12.30
2018-08-31T21:32:34.751Z,10.10
2018-08-31T21:35:03.439Z,11.77
2018-08-31T21:37:32.008Z,12.37
2018-08-31T21:40:01.608Z,11.47
2018-08-31T21:42:30.374Z,11.80
2018-08-31T21:45:03.720Z,12.57
2018-08-31T21:47:32.373Z,10.30
2018-08-31T21:50:02.196Z,12.93
2018-08-31T21:52:30.747Z,11.73
2018-08-31T21:54:59.832Z,12.83
2018-08-31T21:57:33.195Z,11.70
2018-08-31T22:00:01.771Z,11.83
2018-08-31T22:02:30.315Z,11.37
2018-08-31T22:04:59.246Z,13.80
2018-08-31T22:07:28.358Z,9.80
2018-08-31T22:09:57.874Z,14.00
2018-08-31T22:12:26.518Z,11.57
2018-08-31T22:14:55.599Z,9.47
2018-08-31T22:17:24.241Z,12.23
2018-08-31T22:19:53.790Z,13.13
2018-08-31T22:22:22.415Z,10.27
2018-08-31T22:24:51.630Z,11.83
2018-08-31T22:27:20.228Z,11.90
2018-08-31T22:29:48.758Z,11.40
2018-08-31T22:32:17.346Z,12.00
2018-08-31T22:34:45.888Z,12.33
2018-08-31T22:37:14.433Z,12.10
2018-08-31T22:39:44.473Z,10.47
2018-08-31T22:42:13.054Z,12.77
2018-08-31T22:44:42.390Z,11.70
2018-08-31T22:47:11.044Z,12.83
2018-08-31T22:49:39.604Z,11.93
2018-08-31T22:52:08.170Z,13.17
2018-08-31T22:54:36.730Z,11.80
2018-08-31T22:57:05.351Z,12.20
2018-08-31T22:59:34.522Z,14.03
2018-08-31T23:02:03.094Z,14.37
2018-08-31T23:04:33.195Z,14.77
2018-08-31T23:07:02.531Z,13.93
2018-08-31T23:09:31.048Z,16.10
2018-08-31T23:11:59.653Z,13.17
2018-08-31T23:14:28.188Z,14.77
2018-08-31T23:16:56.750Z,13.10
2018-08-31T23:19:25.338Z,15.33
2018-08-31T23:21:53.924Z,14.60
2018-08-31T23:24:23.378Z,15.47
2018-08-31T23:26:51.945Z,14.70
2018-08-31T23:29:20.538Z,15.33
2018-08-31T23:31:50.118Z,14.00
2018-08-31T23:34:18.878Z,13.67
2018-08-31T23:36:48.019Z,16.33
2018-08-31T23:39:16.542Z,14.90
2018-08-31T23:41:45.139Z,14.30
2018-08-31T23:44:13.670Z,16.63
2018-08-31T23:46:42.263Z,14.40
2018-08-31T23:49:11.094Z,14.40
2018-08-31T23:51:39.650Z,13.83
2018-08-31T23:54:08.251Z,14.40
2018-08-31T23:56:36.829Z,15.03
2018-08-31T23:59:05.424Z,14.23
